KSUX/SUX METAR and TAF weather

Enter ICAO airport designator
Station Type Date Time Source
KSUX METAR 2019/02/16 02:52 UTC NOAA

KSUX 160252Z 03007KT 10SM OVC110 M11/M16 A3016 RMK AO2 SLP238 T11111156 53003


Station Type Date Time Source
KSUX Decoded METAR 2019/02/16 02:52 UTC NOAA

SIOUX GATEWAY AIRPORT, IA, United States (KSUX) 42-23N 96-23W 338M
Feb 15, 2019 - 09:52 PM EST / 2019.02.16 0252 UTC
Wind: from the NNE (030 degrees) at 8 MPH (7 KT):0
Visibility: 10 mile(s):0
Sky conditions: overcast
Temperature: 12.0 F (-11.1 C)
Windchill: 0 F (-18 C):1
Dew Point: 3.9 F (-15.6 C)
Relative Humidity: 69%
Pressure (altimeter): 30.16 in. Hg (1021 hPa)
Pressure tendency: 0.01 inches (0.3 hPa) higher than three hours ago
ob: KSUX 160252Z 03007KT 10SM OVC110 M11/M16 A3016 RMK AO2 SLP238 T11111156 53003
cycle: 3

Station Type Date Time Source
KSUX TAF 2019/02/15 18:22 UTC NOAA

TAF KSUX 151720Z 1518/1618 35007KT P6SM OVC100
FM160200 02005KT P6SM OVC100
FM161000 10005KT P6SM SCT110
FM161600 12008KT P6SM BKN100


Example: see airport list